Terminal Aerodrome Forecast
Issued by NWS

Home | Current Version | Previous Version | Text Only | Print | Product List | Glossary On
Versions: 1 2 3 4 5 6 7 8 9 10 11 12 13 14 15 16 17 18 19 20 21 22 23 24 25 26 27 28 29 30 31 32
000
FTAK31 PAFC 151255 AAA
TAFAVD
TAF AMD
PAVD 151255Z 1513/1612 VRB03KT P6SM SKC
      TEMPO 1513/1517 2SM BR SCT002
     FM152300 VRB05KT P6SM -RA SCT025 OVC050
     FM160100 VRB05KT 4SM -RA BR BKN015 OVC025
     FM160700 VRB05KT P6SM -SHRA SCT015 OVC025
     AMD LTD TO CLD VIS AND WIND=

USA.gov is the U.S. government's official web portal to all federal, state and local government web resources and services.